RLTS1 YMES-YMES
Flight info
| Callsign | RLTS1 |
|---|---|
| Flight time | 0h 51m |
| Altitude | 6000 |
| Route | ESL DCT R360 DCT ESL |
| Aircraft | PC21/L-SDFGRWY/S |
Departure
| Time | 2026-04-22 10:42 |
|---|---|
| Airport | RAAF Base East Sale (YMES) |
Arrival
| Time | 2026-04-22 11:33 |
|---|---|
| Airport | RAAF Base East Sale (YMES) |
| Time | Latitude | Longitude | Altitude | Speed | Heading |
|---|---|---|---|---|---|
| 2026-04-22 10:32 | -38.09901 | 147.13594 | 26 ft | 0 kts | 188° |
| 2026-04-22 10:36 | -38.09905 | 147.13593 | 24 ft | 3 kts | 188° |
| 2026-04-22 10:36 | -38.09917 | 147.13573 | 26 ft | 4 kts | 312° |
| 2026-04-22 10:36 | -38.09876 | 147.13575 | 28 ft | 5 kts | 349° |
| 2026-04-22 10:36 | -38.09864 | 147.13524 | 27 ft | 9 kts | 278° |
| 2026-04-22 10:37 | -38.09836 | 147.13467 | 28 ft | 8 kts | 3° |
| 2026-04-22 10:37 | -38.09762 | 147.13352 | 24 ft | 11 kts | 279° |
| 2026-04-22 10:37 | -38.09749 | 147.13247 | 24 ft | 13 kts | 279° |
| 2026-04-22 10:38 | -38.09735 | 147.13133 | 23 ft | 14 kts | 279° |
| 2026-04-22 10:38 | -38.09720 | 147.13010 | 20 ft | 15 kts | 279° |
| 2026-04-22 10:38 | -38.09705 | 147.12889 | 21 ft | 12 kts | 279° |
| 2026-04-22 10:38 | -38.09667 | 147.12829 | 23 ft | 7 kts | 347° |
| 2026-04-22 10:39 | -38.09658 | 147.12828 | 23 ft | 0 kts | 4° |
| 2026-04-22 10:39 | -38.09657 | 147.12828 | 23 ft | 2 kts | 4° |
| 2026-04-22 10:39 | -38.09603 | 147.12840 | 25 ft | 11 kts | 18° |
| 2026-04-22 10:40 | -38.09578 | 147.12920 | 23 ft | 11 kts | 98° |
| 2026-04-22 10:40 | -38.09588 | 147.13000 | 23 ft | 7 kts | 99° |
| 2026-04-22 10:40 | -38.09590 | 147.13014 | 23 ft | 0 kts | 98° |
| 2026-04-22 10:41 | -38.09593 | 147.13043 | 23 ft | 24 kts | 98° |
| 2026-04-22 10:41 | -38.09665 | 147.13620 | 26 ft | 105 kts | 99° |
| 2026-04-22 10:41 | -38.09803 | 147.14741 | 173 ft | 153 kts | 99° |
| 2026-04-22 10:41 | -38.10003 | 147.16273 | 590 ft | 193 kts | 98° |
| 2026-04-22 10:42 | -38.10184 | 147.18027 | 1223 ft | 206 kts | 88° |
| 2026-04-22 10:42 | -38.09985 | 147.19847 | 1910 ft | 212 kts | 76° |
| 2026-04-22 10:42 | -38.09638 | 147.21710 | 2487 ft | 223 kts | 76° |
| 2026-04-22 10:42 | -38.09246 | 147.23705 | 2714 ft | 241 kts | 75° |
| 2026-04-22 10:43 | -38.08799 | 147.25825 | 2780 ft | 256 kts | 74° |
| 2026-04-22 10:43 | -38.08308 | 147.28048 | 2839 ft | 267 kts | 73° |
| 2026-04-22 10:43 | -38.07772 | 147.30347 | 2876 ft | 276 kts | 73° |
| 2026-04-22 10:43 | -38.07211 | 147.32699 | 2960 ft | 279 kts | 72° |
| 2026-04-22 10:44 | -38.06662 | 147.35035 | 3036 ft | 279 kts | 73° |
| 2026-04-22 10:44 | -38.06138 | 147.37408 | 3098 ft | 280 kts | 74° |
| 2026-04-22 10:44 | -38.05628 | 147.39805 | 3059 ft | 281 kts | 75° |
| 2026-04-22 10:44 | -38.05134 | 147.42217 | 3003 ft | 283 kts | 75° |
| 2026-04-22 10:45 | -38.04809 | 147.44670 | 2983 ft | 285 kts | 95° |
| 2026-04-22 10:45 | -38.05999 | 147.46540 | 3126 ft | 289 kts | 162° |
| 2026-04-22 10:45 | -38.07812 | 147.45766 | 3246 ft | 296 kts | 233° |
| 2026-04-22 10:45 | -38.07951 | 147.43292 | 3176 ft | 296 kts | 301° |
| 2026-04-22 10:46 | -38.06262 | 147.42063 | 3058 ft | 288 kts | 3° |
| 2026-04-22 10:46 | -38.04313 | 147.42346 | 3203 ft | 286 kts | 344° |
| 2026-04-22 10:46 | -38.03245 | 147.40361 | 2999 ft | 300 kts | 266° |
| 2026-04-22 10:46 | -38.04568 | 147.38556 | 2885 ft | 299 kts | 187° |
| 2026-04-22 10:47 | -38.06304 | 147.39641 | 2468 ft | 298 kts | 116° |
| 2026-04-22 10:47 | -38.06272 | 147.42156 | 2357 ft | 282 kts | 75° |
| 2026-04-22 10:47 | -38.06899 | 147.44060 | 3324 ft | 267 kts | 163° |
| 2026-04-22 10:47 | -38.08334 | 147.42773 | 2630 ft | 301 kts | 266° |
| 2026-04-22 10:48 | -38.07077 | 147.41137 | 2309 ft | 289 kts | 8° |
| 2026-04-22 10:48 | -38.05483 | 147.42490 | 2682 ft | 256 kts | 34° |
| 2026-04-22 10:48 | -38.03959 | 147.42058 | 3053 ft | 272 kts | 296° |
| 2026-04-22 10:48 | -38.04748 | 147.40058 | 2050 ft | 307 kts | 186° |
| 2026-04-22 10:49 | -38.05951 | 147.41694 | 1374 ft | 296 kts | 74° |
| 2026-04-22 10:49 | -38.04717 | 147.43830 | 862 ft | 300 kts | 50° |
| 2026-04-22 10:49 | -38.04351 | 147.44355 | 4639 ft | 115 kts | 224° |
| 2026-04-22 10:49 | -38.04392 | 147.44302 | 1227 ft | 270 kts | 47° |
| 2026-04-22 10:50 | -38.03370 | 147.46444 | 1408 ft | 269 kts | 100° |
| 2026-04-22 10:50 | -38.04771 | 147.47291 | 2340 ft | 267 kts | 206° |
| 2026-04-22 10:50 | -38.05840 | 147.45177 | 1379 ft | 312 kts | 246° |
| 2026-04-22 10:50 | -38.06464 | 147.43268 | 3746 ft | 6 kts | 81° |
| 2026-04-22 10:51 | -38.06323 | 147.43906 | 3525 ft | 23 kts | 263° |
| 2026-04-22 10:51 | -38.06816 | 147.41645 | 952 ft | 323 kts | 235° |
| 2026-04-22 10:51 | -38.08513 | 147.41393 | 1905 ft | 264 kts | 126° |
| 2026-04-22 10:51 | -38.08065 | 147.43405 | 999 ft | 289 kts | 31° |
| 2026-04-22 10:52 | -38.06129 | 147.44319 | 845 ft | 275 kts | 20° |
| 2026-04-22 10:52 | -38.05082 | 147.45321 | 3226 ft | 192 kts | 56° |
| 2026-04-22 10:52 | -38.03529 | 147.46258 | 626 ft | 313 kts | 21° |
| 2026-04-22 10:52 | -38.02445 | 147.48035 | 1489 ft | 266 kts | 107° |
| 2026-04-22 10:53 | -38.04052 | 147.48797 | 1588 ft | 292 kts | 202° |
| 2026-04-22 10:53 | -38.05244 | 147.46790 | 1574 ft | 297 kts | 262° |
| 2026-04-22 10:53 | -38.04892 | 147.44298 | 1731 ft | 289 kts | 283° |
| 2026-04-22 10:53 | -38.05647 | 147.42111 | 1943 ft | 293 kts | 204° |
| 2026-04-22 10:54 | -38.07407 | 147.42679 | 1787 ft | 277 kts | 118° |
| 2026-04-22 10:54 | -38.06974 | 147.44787 | 1437 ft | 282 kts | 34° |
| 2026-04-22 10:54 | -38.05128 | 147.45779 | 1251 ft | 287 kts | 24° |
| 2026-04-22 10:54 | -38.03281 | 147.46684 | 1413 ft | 277 kts | 20° |
| 2026-04-22 10:55 | -38.01705 | 147.45888 | 1974 ft | 283 kts | 289° |
| 2026-04-22 10:55 | -38.02643 | 147.43891 | 1428 ft | 301 kts | 197° |
| 2026-04-22 10:55 | -38.04737 | 147.43376 | 859 ft | 314 kts | 188° |
| 2026-04-22 10:55 | -38.06858 | 147.42948 | 978 ft | 302 kts | 186° |
| 2026-04-22 10:56 | -38.08864 | 147.42900 | 1321 ft | 277 kts | 149° |
| 2026-04-22 10:56 | -38.09288 | 147.44890 | 1423 ft | 263 kts | 54° |
| 2026-04-22 10:56 | -38.07553 | 147.45506 | 1250 ft | 282 kts | 359° |
| 2026-04-22 10:56 | -38.05594 | 147.45315 | 1234 ft | 282 kts | 358° |
| 2026-04-22 10:57 | -38.03633 | 147.45097 | 1285 ft | 280 kts | 0° |
| 2026-04-22 10:57 | -38.02042 | 147.46029 | 1676 ft | 259 kts | 65° |
| 2026-04-22 10:57 | -38.02583 | 147.48040 | 1712 ft | 280 kts | 149° |
| 2026-04-22 10:57 | -38.04562 | 147.47920 | 1328 ft | 306 kts | 199° |
| 2026-04-22 10:58 | -38.06505 | 147.46915 | 1290 ft | 303 kts | 199° |
| 2026-04-22 10:58 | -38.08453 | 147.45895 | 1266 ft | 301 kts | 200° |
| 2026-04-22 10:58 | -38.10337 | 147.44765 | 1361 ft | 299 kts | 214° |
| 2026-04-22 10:58 | -38.11030 | 147.42462 | 1715 ft | 291 kts | 287° |
| 2026-04-22 10:59 | -38.09593 | 147.40985 | 1683 ft | 279 kts | 2° |
| 2026-04-22 10:59 | -38.07727 | 147.41633 | 1445 ft | 280 kts | 23° |
| 2026-04-22 10:59 | -38.05910 | 147.42529 | 1422 ft | 279 kts | 23° |
| 2026-04-22 10:59 | -38.04133 | 147.43431 | 1402 ft | 278 kts | 25° |
| 2026-04-22 11:00 | -38.02328 | 147.44409 | 1365 ft | 278 kts | 26° |
| 2026-04-22 11:00 | -38.00647 | 147.45511 | 1449 ft | 271 kts | 39° |
| 2026-04-22 11:00 | -37.99584 | 147.47391 | 1706 ft | 266 kts | 72° |
| 2026-04-22 11:00 | -37.99646 | 147.49719 | 1674 ft | 274 kts | 110° |
| 2026-04-22 11:01 | -38.00953 | 147.51510 | 1514 ft | 290 kts | 151° |
| 2026-04-22 11:01 | -38.02953 | 147.51790 | 1538 ft | 299 kts | 190° |
| 2026-04-22 11:01 | -38.04731 | 147.50456 | 1551 ft | 303 kts | 225° |
| 2026-04-22 11:01 | -38.06120 | 147.48433 | 1522 ft | 303 kts | 229° |
| 2026-04-22 11:02 | -38.07457 | 147.46392 | 1644 ft | 298 kts | 230° |
| 2026-04-22 11:02 | -38.08674 | 147.44273 | 1742 ft | 297 kts | 244° |
| 2026-04-22 11:02 | -38.08970 | 147.41724 | 1889 ft | 296 kts | 282° |
| 2026-04-22 11:02 | -38.07950 | 147.39551 | 1908 ft | 287 kts | 325° |
| 2026-04-22 11:03 | -38.06090 | 147.39066 | 1563 ft | 284 kts | 19° |
| 2026-04-22 11:03 | -38.04595 | 147.40679 | 1043 ft | 291 kts | 56° |
| 2026-04-22 11:03 | -38.03469 | 147.42669 | 1143 ft | 274 kts | 56° |
| 2026-04-22 11:03 | -38.02397 | 147.44613 | 1104 ft | 265 kts | 55° |
| 2026-04-22 11:04 | -38.01352 | 147.46525 | 1037 ft | 261 kts | 56° |
| 2026-04-22 11:04 | -38.00364 | 147.48414 | 1326 ft | 253 kts | 58° |
| 2026-04-22 11:04 | -38.00036 | 147.50539 | 1442 ft | 266 kts | 109° |
| 2026-04-22 11:04 | -38.01559 | 147.51887 | 1102 ft | 295 kts | 173° |
| 2026-04-22 11:05 | -38.03504 | 147.50990 | 827 ft | 311 kts | 220° |
| 2026-04-22 11:05 | -38.04765 | 147.48825 | 1019 ft | 302 kts | 239° |
| 2026-04-22 11:05 | -38.05764 | 147.46565 | 1250 ft | 294 kts | 241° |
| 2026-04-22 11:05 | -38.06719 | 147.44273 | 1467 ft | 293 kts | 242° |
| 2026-04-22 11:06 | -38.07690 | 147.41976 | 1587 ft | 296 kts | 241° |
| 2026-04-22 11:06 | -38.08249 | 147.39517 | 1686 ft | 296 kts | 278° |
| 2026-04-22 11:06 | -38.07058 | 147.37562 | 1317 ft | 293 kts | 345° |
| 2026-04-22 11:06 | -38.05041 | 147.37695 | 898 ft | 294 kts | 14° |
| 2026-04-22 11:07 | -38.03045 | 147.38241 | 742 ft | 293 kts | 14° |
| 2026-04-22 11:07 | -38.01049 | 147.38764 | 639 ft | 292 kts | 12° |
| 2026-04-22 11:07 | -37.99098 | 147.39201 | 1133 ft | 221 kts | 13° |
| 2026-04-22 11:07 | -37.99107 | 147.39171 | 4323 ft | 115 kts | 187° |
| 2026-04-22 11:08 | -37.98504 | 147.39299 | 583 ft | 304 kts | 13° |
| 2026-04-22 11:08 | -37.97501 | 147.41109 | 786 ft | 283 kts | 112° |
| 2026-04-22 11:08 | -37.99190 | 147.41688 | 771 ft | 293 kts | 212° |
| 2026-04-22 11:08 | -38.00023 | 147.39433 | 706 ft | 296 kts | 274° |
| 2026-04-22 11:09 | -37.99053 | 147.37284 | 879 ft | 282 kts | 317° |
| 2026-04-22 11:09 | -37.97637 | 147.35843 | 1993 ft | 245 kts | 347° |
| 2026-04-22 11:09 | -37.96388 | 147.36953 | 1572 ft | 269 kts | 80° |
| 2026-04-22 11:09 | -37.97270 | 147.38981 | 935 ft | 298 kts | 156° |
| 2026-04-22 11:10 | -37.99368 | 147.39009 | 634 ft | 306 kts | 186° |
| 2026-04-22 11:10 | -38.01443 | 147.38623 | 714 ft | 295 kts | 193° |
| 2026-04-22 11:10 | -38.02815 | 147.36968 | 1544 ft | 273 kts | 243° |
| 2026-04-22 11:10 | -38.03659 | 147.34850 | 2192 ft | 266 kts | 239° |
| 2026-04-22 11:11 | -38.05221 | 147.34088 | 2238 ft | 269 kts | 150° |
| 2026-04-22 11:11 | -38.05715 | 147.36162 | 1684 ft | 280 kts | 65° |
| 2026-04-22 11:11 | -38.04237 | 147.37788 | 1057 ft | 298 kts | 23° |
| 2026-04-22 11:11 | -38.02216 | 147.38475 | 744 ft | 300 kts | 13° |
| 2026-04-22 11:12 | -38.00171 | 147.38973 | 562 ft | 298 kts | 11° |
| 2026-04-22 11:12 | -37.98785 | 147.39265 | 3306 ft | 24 kts | 190° |
| 2026-04-22 11:12 | -37.99276 | 147.39130 | 2321 ft | 102 kts | 16° |
| 2026-04-22 11:12 | -37.97421 | 147.39141 | 649 ft | 304 kts | 325° |
| 2026-04-22 11:13 | -37.97452 | 147.36883 | 718 ft | 294 kts | 212° |
| 2026-04-22 11:13 | -37.99192 | 147.37387 | 721 ft | 279 kts | 125° |
| 2026-04-22 11:13 | -37.99311 | 147.39641 | 846 ft | 271 kts | 54° |
| 2026-04-22 11:13 | -37.97941 | 147.41092 | 1746 ft | 241 kts | 59° |
| 2026-04-22 11:14 | -37.98616 | 147.42739 | 1375 ft | 282 kts | 170° |
| 2026-04-22 11:14 | -38.00128 | 147.41290 | 771 ft | 309 kts | 261° |
| 2026-04-22 11:14 | -37.99944 | 147.38573 | 551 ft | 308 kts | 278° |
| 2026-04-22 11:14 | -37.99875 | 147.37926 | 3828 ft | 129 kts | 96° |
| 2026-04-22 11:15 | -37.99780 | 147.37177 | 515 ft | 310 kts | 279° |
| 2026-04-22 11:15 | -37.98463 | 147.35689 | 857 ft | 277 kts | 14° |
| 2026-04-22 11:15 | -37.97227 | 147.37320 | 955 ft | 271 kts | 75° |
| 2026-04-22 11:15 | -37.96914 | 147.39679 | 972 ft | 272 kts | 81° |
| 2026-04-22 11:16 | -37.96689 | 147.42052 | 1100 ft | 269 kts | 91° |
| 2026-04-22 11:16 | -37.97763 | 147.43815 | 1222 ft | 280 kts | 163° |
| 2026-04-22 11:16 | -37.99605 | 147.43202 | 1098 ft | 296 kts | 220° |
| 2026-04-22 11:16 | -38.00223 | 147.40806 | 774 ft | 304 kts | 278° |
| 2026-04-22 11:17 | -37.99944 | 147.38198 | 855 ft | 291 kts | 278° |
| 2026-04-22 11:17 | -37.99664 | 147.35693 | 910 ft | 282 kts | 279° |
| 2026-04-22 11:17 | -37.99364 | 147.33281 | 1333 ft | 272 kts | 282° |
| 2026-04-22 11:17 | -37.98413 | 147.31581 | 2401 ft | 236 kts | 351° |
| 2026-04-22 11:18 | -37.97170 | 147.32672 | 2210 ft | 260 kts | 79° |
| 2026-04-22 11:18 | -37.97775 | 147.34944 | 1241 ft | 300 kts | 121° |
| 2026-04-22 11:18 | -37.98944 | 147.37181 | 1103 ft | 263 kts | 123° |
| 2026-04-22 11:18 | -37.99044 | 147.37175 | 4578 ft | 134 kts | 296° |
| 2026-04-22 11:19 | -37.99348 | 147.37797 | 693 ft | 313 kts | 117° |
| 2026-04-22 11:19 | -37.99613 | 147.39532 | 717 ft | 301 kts | 78° |
| 2026-04-22 11:19 | -37.98162 | 147.42198 | 1705 ft | 257 kts | 83° |
| 2026-04-22 11:19 | -37.99279 | 147.43725 | 1662 ft | 286 kts | 181° |
| 2026-04-22 11:20 | -38.00292 | 147.42731 | 1233 ft | 305 kts | 252° |
| 2026-04-22 11:20 | -38.00166 | 147.40003 | 562 ft | 318 kts | 280° |
| 2026-04-22 11:20 | -37.99793 | 147.37293 | 602 ft | 306 kts | 281° |
| 2026-04-22 11:20 | -37.99437 | 147.34727 | 1174 ft | 278 kts | 282° |
| 2026-04-22 11:21 | -37.97879 | 147.33473 | 1991 ft | 248 kts | 47° |
| 2026-04-22 11:21 | -37.97704 | 147.34930 | 1391 ft | 277 kts | 105° |
| 2026-04-22 11:21 | -37.98508 | 147.37296 | 943 ft | 279 kts | 114° |
| 2026-04-22 11:21 | -37.99444 | 147.38566 | 3349 ft | 203 kts | 153° |
| 2026-04-22 11:22 | -38.00353 | 147.40369 | 523 ft | 320 kts | 112° |
| 2026-04-22 11:22 | -38.00012 | 147.42656 | 1412 ft | 273 kts | 31° |
| 2026-04-22 11:22 | -37.98180 | 147.43151 | 1861 ft | 269 kts | 9° |
| 2026-04-22 11:22 | -37.96316 | 147.43350 | 2166 ft | 272 kts | 353° |
| 2026-04-22 11:23 | -37.95071 | 147.41667 | 1990 ft | 295 kts | 273° |
| 2026-04-22 11:23 | -37.96315 | 147.39729 | 1052 ft | 317 kts | 197° |
| 2026-04-22 11:23 | -37.98484 | 147.39196 | 838 ft | 293 kts | 187° |
| 2026-04-22 11:23 | -37.98720 | 147.39109 | 4428 ft | 132 kts | 8° |
| 2026-04-22 11:24 | -37.99271 | 147.38977 | 679 ft | 319 kts | 186° |
| 2026-04-22 11:24 | -38.01293 | 147.38664 | 1643 ft | 275 kts | 186° |
| 2026-04-22 11:24 | -38.03166 | 147.38709 | 1788 ft | 270 kts | 164° |
| 2026-04-22 11:24 | -38.04569 | 147.40093 | 1773 ft | 262 kts | 109° |
| 2026-04-22 11:25 | -38.04189 | 147.42220 | 1720 ft | 262 kts | 45° |
| 2026-04-22 11:25 | -38.02486 | 147.42874 | 1796 ft | 267 kts | 351° |
| 2026-04-22 11:25 | -38.01129 | 147.41534 | 2601 ft | 245 kts | 296° |
| 2026-04-22 11:25 | -38.01100 | 147.39394 | 2824 ft | 258 kts | 250° |
| 2026-04-22 11:26 | -38.02014 | 147.37350 | 2620 ft | 274 kts | 236° |
| 2026-04-22 11:26 | -38.03123 | 147.35349 | 2582 ft | 280 kts | 234° |
| 2026-04-22 11:26 | -38.04252 | 147.33332 | 2612 ft | 282 kts | 234° |
| 2026-04-22 11:26 | -38.05399 | 147.31300 | 2598 ft | 284 kts | 234° |
| 2026-04-22 11:27 | -38.06438 | 147.29193 | 2575 ft | 286 kts | 246° |
| 2026-04-22 11:27 | -38.06900 | 147.26754 | 2607 ft | 285 kts | 268° |
| 2026-04-22 11:27 | -38.06655 | 147.24270 | 2577 ft | 286 kts | 288° |
| 2026-04-22 11:27 | -38.05985 | 147.21895 | 2572 ft | 287 kts | 292° |
| 2026-04-22 11:28 | -38.05230 | 147.19546 | 2654 ft | 285 kts | 294° |
| 2026-04-22 11:28 | -38.04450 | 147.17249 | 2755 ft | 283 kts | 295° |
| 2026-04-22 11:28 | -38.03656 | 147.14949 | 2698 ft | 287 kts | 295° |
| 2026-04-22 11:28 | -38.02833 | 147.12624 | 2635 ft | 289 kts | 294° |
| 2026-04-22 11:29 | -38.02301 | 147.10157 | 2384 ft | 293 kts | 276° |
| 2026-04-22 11:29 | -38.02488 | 147.07595 | 1971 ft | 300 kts | 254° |
| 2026-04-22 11:29 | -38.03520 | 147.05327 | 1672 ft | 299 kts | 224° |
| 2026-04-22 11:29 | -38.05304 | 147.04103 | 1503 ft | 291 kts | 188° |
| 2026-04-22 11:30 | -38.07218 | 147.04508 | 1493 ft | 279 kts | 149° |
| 2026-04-22 11:30 | -38.08528 | 147.06245 | 1343 ft | 276 kts | 116° |
| 2026-04-22 11:30 | -38.09024 | 147.08632 | 755 ft | 286 kts | 98° |
| 2026-04-22 11:30 | -38.09348 | 147.11157 | 312 ft | 289 kts | 99° |
| 2026-04-22 11:31 | -38.09669 | 147.13658 | 192 ft | 282 kts | 99° |
| 2026-04-22 11:31 | -38.08912 | 147.14658 | 924 ft | 176 kts | 312° |
| 2026-04-22 11:31 | -38.08635 | 147.13296 | 968 ft | 149 kts | 281° |
| 2026-04-22 11:31 | -38.08468 | 147.12066 | 939 ft | 137 kts | 279° |
| 2026-04-22 11:32 | -38.08817 | 147.11128 | 612 ft | 123 kts | 192° |
| 2026-04-22 11:32 | -38.09415 | 147.11674 | 267 ft | 121 kts | 101° |
| 2026-04-22 11:32 | -38.09545 | 147.12687 | 92 ft | 113 kts | 99° |
| 2026-04-22 11:32 | -38.09660 | 147.13580 | 25 ft | 86 kts | 98° |
| 2026-04-22 11:33 | -38.09739 | 147.14240 | 28 ft | 66 kts | 98° |
| 2026-04-22 11:33 | -38.09791 | 147.14658 | 20 ft | 16 kts | 98° |
| 2026-04-22 11:33 | -38.09839 | 147.14724 | 18 ft | 10 kts | 189° |
| 2026-04-22 11:33 | -38.09885 | 147.14663 | 19 ft | 9 kts | 234° |
| 2026-04-22 11:34 | -38.09915 | 147.14597 | 20 ft | 8 kts | 267° |
| 2026-04-22 11:34 | -38.09906 | 147.14516 | 22 ft | 10 kts | 279° |
| 2026-04-22 11:34 | -38.09893 | 147.14409 | 24 ft | 13 kts | 278° |
| 2026-04-22 11:34 | -38.09881 | 147.14294 | 26 ft | 13 kts | 279° |
| 2026-04-22 11:35 | -38.09867 | 147.14180 | 27 ft | 13 kts | 278° |
| 2026-04-22 11:35 | -38.09855 | 147.14077 | 28 ft | 10 kts | 275° |
| 2026-04-22 11:35 | -38.09892 | 147.14038 | 28 ft | 8 kts | 187° |
| 2026-04-22 11:35 | -38.09925 | 147.13998 | 27 ft | 8 kts | 281° |
| 2026-04-22 11:36 | -38.09913 | 147.13902 | 28 ft | 12 kts | 278° |
| 2026-04-22 11:36 | -38.09899 | 147.13786 | 26 ft | 14 kts | 278° |
| 2026-04-22 11:36 | -38.09885 | 147.13662 | 26 ft | 13 kts | 279° |
| 2026-04-22 11:36 | -38.09885 | 147.13597 | 26 ft | 3 kts | 194° |
| 2026-04-22 11:37 | -38.09900 | 147.13594 | 26 ft | 0 kts | 189° |
| 2026-04-22 11:37 | -38.09901 | 147.13594 | 26 ft | 0 kts | 189° |